Terminal Aerodrome Forecast
Issued by NWS

Home | Current Version | Previous Version | Text Only | Print | Product List | Glossary On
Versions: 1 2 3 4 5 6 7 8 9 10 11 12 13 14 15 16 17 18 19 20 21 22 23 24 25 26 27 28 29 30
000
FTUS43 KDDC 280250 AAF
TAFHYS
TAF AMD
KHYS 280250Z 2803/2824 33006KT P6SM VCTS OVC060CB
     FM280400 33006KT P6SM SCT060
     FM280600 33005KT P6SM BKN110
     FM281200 29007KT P6SM SCT200=

USA.gov is the U.S. government's official web portal to all federal, state and local government web resources and services.